createdAt,value
2019-05-12T00:01:40.496Z,10.18
2019-05-12T00:04:12.408Z,10.00
2019-05-12T00:06:47.854Z,9.82
2019-05-12T00:09:19.286Z,9.71
2019-05-12T00:11:50.978Z,9.66
2019-05-12T00:14:22.558Z,9.61
2019-05-12T00:16:54.186Z,9.70
2019-05-12T00:19:28.341Z,9.73
2019-05-12T00:21:59.375Z,9.75
2019-05-12T00:24:31.082Z,9.69
2019-05-12T00:27:08.599Z,9.64
2019-05-12T00:29:41.699Z,9.59
2019-05-12T00:32:13.310Z,9.50
2019-05-12T00:34:44.977Z,9.45
2019-05-12T00:37:18.553Z,9.42
2019-05-12T00:39:50.106Z,9.38
2019-05-12T00:42:21.675Z,9.36
2019-05-12T00:44:53.378Z,9.32
2019-05-12T00:47:25.140Z,9.28
2019-05-12T00:49:58.321Z,9.26
2019-05-12T00:52:30.282Z,9.31
2019-05-12T00:55:02.100Z,9.36
2019-05-12T00:57:33.820Z,9.40
2019-05-12T01:00:08.945Z,9.45
2019-05-12T01:02:40.868Z,9.44
2019-05-12T01:05:12.992Z,9.41
2019-05-12T01:07:48.252Z,9.42
2019-05-12T01:10:19.662Z,9.46
2019-05-12T01:12:51.244Z,9.45
2019-05-12T01:15:22.922Z,9.41
2019-05-12T01:17:54.606Z,9.36
2019-05-12T01:20:28.265Z,9.59
2019-05-12T01:22:59.989Z,9.93
2019-05-12T01:25:32.924Z,10.01
2019-05-12T01:28:08.148Z,9.83
2019-05-12T01:30:39.680Z,9.58
2019-05-12T01:33:11.449Z,9.50
2019-05-12T01:35:43.104Z,9.45
2019-05-12T01:38:14.828Z,9.46
2019-05-12T01:40:47.922Z,9.76
2019-05-12T01:43:21.185Z,9.80
2019-05-12T01:45:53.211Z,9.76
2019-05-12T01:48:24.838Z,9.66
2019-05-12T01:50:57.964Z,9.51
2019-05-12T01:53:29.708Z,9.40
2019-05-12T01:56:01.411Z,9.28
2019-05-12T01:58:33.186Z,9.21
2019-05-12T02:01:04.919Z,9.20
2019-05-12T02:03:37.667Z,9.18
2019-05-12T02:06:09.710Z,9.19
2019-05-12T02:08:43.077Z,9.18
2019-05-12T02:11:33.010Z,9.18
2019-05-12T02:14:05.428Z,9.16
2019-05-12T02:16:38.697Z,9.17
2019-05-12T02:19:10.691Z,9.12
2019-05-12T02:21:42.494Z,9.26
2019-05-12T02:24:24.252Z,9.40
2019-05-12T02:26:48.691Z,9.27
2019-05-12T02:29:20.770Z,9.24
2019-05-12T02:31:52.496Z,9.20
2019-05-12T02:34:25.398Z,9.17
2019-05-12T02:36:58.663Z,9.08
2019-05-12T02:39:30.328Z,9.05
2019-05-12T02:42:05.071Z,9.17
2019-05-12T02:44:35.552Z,9.47
2019-05-12T02:47:07.254Z,9.76
2019-05-12T02:49:39.066Z,9.92
2019-05-12T02:52:10.938Z,9.94
2019-05-12T02:54:51.841Z,10.01
2019-05-12T02:57:17.341Z,9.78
2019-05-12T02:59:49.413Z,10.14
2019-05-12T03:02:24.211Z,10.43
2019-05-12T03:04:55.972Z,10.86
2019-05-12T03:07:28.891Z,11.24
2019-05-12T03:10:04.955Z,11.36
2019-05-12T03:12:36.184Z,11.59
2019-05-12T03:15:08.022Z,12.11
2019-05-12T03:17:44.344Z,12.34
2019-05-12T03:20:16.080Z,12.68
2019-05-12T03:22:47.816Z,13.13
2019-05-12T03:25:24.759Z,13.53
2019-05-12T03:27:54.877Z,14.16
2019-05-12T03:30:28.972Z,14.71
2019-05-12T03:33:00.013Z,15.22
2019-05-12T03:35:35.095Z,15.71
2019-05-12T03:38:05.406Z,16.09
2019-05-12T03:40:38.380Z,16.37
2019-05-12T03:43:14.654Z,16.62
2019-05-12T03:45:45.551Z,17.21
2019-05-12T03:48:17.481Z,17.45
2019-05-12T03:50:49.220Z,17.70
2019-05-12T03:53:24.437Z,18.30
2019-05-12T03:55:55.289Z,18.96
2019-05-12T03:58:27.473Z,19.27
2019-05-12T04:00:59.332Z,19.87
2019-05-12T04:03:34.343Z,20.42
2019-05-12T04:06:05.015Z,21.10
2019-05-12T04:08:38.642Z,21.75
2019-05-12T04:11:10.375Z,21.81
2019-05-12T04:13:45.051Z,22.69
2019-05-12T04:16:16.528Z,22.82
2019-05-12T04:18:48.347Z,22.99
2019-05-12T04:21:20.074Z,22.89
2019-05-12T04:23:54.769Z,23.34
2019-05-12T04:26:27.419Z,23.61
2019-05-12T04:29:05.139Z,23.96
2019-05-12T04:31:37.666Z,24.02
2019-05-12T04:34:14.493Z,23.70
2019-05-12T04:36:46.376Z,23.41
2019-05-12T04:39:19.122Z,23.71
2019-05-12T04:41:51.135Z,23.94
2019-05-12T04:44:25.144Z,23.80
2019-05-12T04:46:56.929Z,23.22
2019-05-12T04:49:34.564Z,22.49
2019-05-12T04:52:07.619Z,21.98
2019-05-12T04:54:58.120Z,21.67
2019-05-12T05:00:44.774Z,21.20
2019-05-12T05:03:17.107Z,20.80
2019-05-12T05:05:49.931Z,20.41
2019-05-12T05:08:24.147Z,20.30
2019-05-12T05:10:57.116Z,20.38
2019-05-12T05:13:28.836Z,20.54
2019-05-12T05:16:00.599Z,20.50
2019-05-12T05:18:34.309Z,20.56
2019-05-12T05:21:23.882Z,20.85
2019-05-12T05:24:04.123Z,21.24
2019-05-12T05:26:57.066Z,21.49
2019-05-12T10:39:40.298Z,22.21
2019-05-12T10:42:13.724Z,22.48
2019-05-12T10:44:45.246Z,22.59
2019-05-12T10:47:16.647Z,22.44
2019-05-12T10:49:49.845Z,22.28
2019-05-12T10:52:21.559Z,22.47
2019-05-12T10:54:53.844Z,23.03
2019-05-12T10:57:25.786Z,23.62
2019-05-12T10:59:57.446Z,23.86
2019-05-12T11:02:30.655Z,23.54
2019-05-12T11:05:14.670Z,23.51
2019-05-12T11:07:39.903Z,23.63
2019-05-12T11:10:16.430Z,23.64
2019-05-12T11:12:45.356Z,23.23
2019-05-12T11:15:17.082Z,22.99
2019-05-12T11:17:53.490Z,22.47
2019-05-12T11:20:26.299Z,21.83
2019-05-12T11:22:58.086Z,21.57
2019-05-12T11:25:34.662Z,21.33
2019-05-12T11:28:06.430Z,21.13
2019-05-12T11:30:38.005Z,21.09
2019-05-12T11:33:09.627Z,21.15
2019-05-12T11:35:43.372Z,21.13
2019-05-12T11:38:14.736Z,21.14
2019-05-12T11:40:46.478Z,21.32
2019-05-12T11:43:21.001Z,21.74
2019-05-12T11:45:53.451Z,22.22
2019-05-12T11:48:25.531Z,22.58
2019-05-12T11:50:57.735Z,22.76
2019-05-12T11:53:32.083Z,22.84
2019-05-12T11:56:07.835Z,22.93
2019-05-12T11:58:35.988Z,23.22
2019-05-12T12:01:09.160Z,23.34
2019-05-12T12:03:40.791Z,23.34
2019-05-12T12:06:13.486Z,23.55
2019-05-12T12:08:45.456Z,23.97
2019-05-12T12:11:24.580Z,24.10
2019-05-12T12:13:53.594Z,24.28
2019-05-12T12:16:25.134Z,24.30
2019-05-12T12:19:02.840Z,24.37
2019-05-12T12:21:34.774Z,24.17
2019-05-12T12:24:06.912Z,24.09
2019-05-12T12:26:38.587Z,24.10
2019-05-12T12:29:13.680Z,23.97
2019-05-12T12:31:47.269Z,23.80
2019-05-12T12:34:23.711Z,23.78
2019-05-12T12:36:54.455Z,23.90
2019-05-12T12:39:26.523Z,23.70
2019-05-12T12:42:00.354Z,23.34
2019-05-12T12:44:33.929Z,23.19
2019-05-12T12:47:05.202Z,23.02
2019-05-12T12:49:39.905Z,22.32
2019-05-12T12:52:10.097Z,21.66
2019-05-12T12:54:43.706Z,20.92
2019-05-12T12:57:15.117Z,20.43
2019-05-12T12:59:51.455Z,19.98
2019-05-12T13:02:20.159Z,19.42
2019-05-12T13:04:53.862Z,18.49
2019-05-12T13:07:26.759Z,17.59
2019-05-12T13:10:07.353Z,16.85
2019-05-12T13:12:35.721Z,16.48
2019-05-12T13:15:08.067Z,16.15
2019-05-12T13:17:41.747Z,16.02
2019-05-12T13:20:15.354Z,15.98
2019-05-12T13:22:47.162Z,16.01
2019-05-12T13:25:19.636Z,16.10
2019-05-12T13:27:56.171Z,16.22
2019-05-12T13:30:28.016Z,16.35
2019-05-12T13:36:01.547Z,16.56
2019-05-12T13:38:46.089Z,16.67
2019-05-12T13:45:07.584Z,16.98
2019-05-12T13:47:40.017Z,17.00
2019-05-12T13:50:21.713Z,17.07
2019-05-12T13:52:47.588Z,16.89
2019-05-12T13:55:23.956Z,16.79
2019-05-12T13:57:58.019Z,16.80
2019-05-12T14:00:29.866Z,16.81
2019-05-12T14:03:04.548Z,16.85
2019-05-12T14:05:41.166Z,16.90
2019-05-12T14:08:15.623Z,16.97
2019-05-12T14:10:54.059Z,17.23
2019-05-12T14:13:24.530Z,17.26
2019-05-12T14:15:57.401Z,17.36
2019-05-12T14:18:29.996Z,17.42
2019-05-12T14:21:01.546Z,17.41
2019-05-12T14:23:35.073Z,17.45
2019-05-12T14:26:09.361Z,17.51
2019-05-12T14:28:45.650Z,17.64
2019-05-12T14:31:26.545Z,17.78
2019-05-12T14:33:49.339Z,17.94
2019-05-12T14:36:26.652Z,18.11
2019-05-12T14:39:06.203Z,18.25
2019-05-12T14:41:37.242Z,18.33
2019-05-12T14:44:10.137Z,18.42
2019-05-12T14:46:46.467Z,18.45
2019-05-12T14:49:15.172Z,18.40
2019-05-12T14:51:46.973Z,18.36
2019-05-12T14:54:23.873Z,18.30
2019-05-12T14:56:57.687Z,18.22
2019-05-12T14:59:36.570Z,18.10
2019-05-12T15:02:09.795Z,17.96
2019-05-12T15:04:43.560Z,17.79
2019-05-12T15:07:15.336Z,17.64
2019-05-12T15:09:47.456Z,17.54
2019-05-12T15:12:19.085Z,17.40
2019-05-12T15:15:08.973Z,17.38
2019-05-12T15:17:38.375Z,17.40
2019-05-12T15:20:13.613Z,17.48
2019-05-12T15:22:51.800Z,17.46
2019-05-12T15:25:21.187Z,17.38
2019-05-12T15:27:54.372Z,17.28
2019-05-12T15:30:26.944Z,17.20
2019-05-12T15:33:00.221Z,17.15
2019-05-12T15:35:34.723Z,17.12
2019-05-12T15:38:09.371Z,17.08
2019-05-12T15:40:43.196Z,17.03
2019-05-12T15:43:14.998Z,17.08
2019-05-12T15:45:48.960Z,17.01
2019-05-12T15:48:25.579Z,17.02
2019-05-12T15:50:59.402Z,17.02
2019-05-12T15:53:30.160Z,17.02
2019-05-12T15:56:05.699Z,16.98
2019-05-12T15:58:37.134Z,16.98
2019-05-12T16:01:09.159Z,16.96
2019-05-12T16:03:43.828Z,16.92
2019-05-12T16:06:17.225Z,16.92
2019-05-12T16:08:50.247Z,16.87
2019-05-12T16:11:24.454Z,16.84
2019-05-12T16:13:59.521Z,16.77
2019-05-12T16:16:42.465Z,16.70
2019-05-12T16:19:10.684Z,16.69
2019-05-12T16:21:45.375Z,16.68
2019-05-12T16:24:17.580Z,16.67
2019-05-12T16:26:51.962Z,16.63
2019-05-12T16:29:25.613Z,16.56
2019-05-12T16:31:58.705Z,16.51
2019-05-12T16:34:36.111Z,16.51
2019-05-12T16:37:05.016Z,16.58
2019-05-12T16:39:44.291Z,16.57
2019-05-12T16:42:14.948Z,16.51
2019-05-12T16:44:49.657Z,16.49
2019-05-12T16:47:29.147Z,16.43
2019-05-12T16:49:59.568Z,16.38
2019-05-12T16:52:40.619Z,16.48
2019-05-12T16:55:11.844Z,16.66
2019-05-12T16:57:51.489Z,16.73
2019-05-12T17:00:24.449Z,16.64
2019-05-12T17:02:58.119Z,16.45
2019-05-12T17:05:33.551Z,16.26
2019-05-12T17:08:07.001Z,16.87
2019-05-12T17:10:49.142Z,16.61
2019-05-12T17:13:23.837Z,16.42
2019-05-12T17:15:59.983Z,16.22
2019-05-12T17:18:34.145Z,16.17
2019-05-12T17:21:14.333Z,16.11
2019-05-12T17:23:46.442Z,16.19
2019-05-12T17:26:19.711Z,16.25
2019-05-12T17:28:53.697Z,16.26
2019-05-12T17:31:24.883Z,16.28
2019-05-12T17:34:00.126Z,16.25
2019-05-12T17:36:34.383Z,16.04
2019-05-12T17:39:08.306Z,15.98
2019-05-12T17:41:42.635Z,15.99
2019-05-12T17:44:19.699Z,15.92
2019-05-12T17:46:54.174Z,16.00
2019-05-12T17:49:30.803Z,15.99
2019-05-12T17:52:13.166Z,15.96
2019-05-12T17:54:38.793Z,15.92
2019-05-12T17:57:17.189Z,15.92
2019-05-12T17:59:45.036Z,15.77
2019-05-12T18:02:18.904Z,15.66
2019-05-12T18:05:01.269Z,15.51
2019-05-12T18:07:36.181Z,15.39
2019-05-12T18:10:13.360Z,15.30
2019-05-12T18:12:49.836Z,15.20
2019-05-12T18:15:32.370Z,15.28
2019-05-12T18:18:00.639Z,15.39
2019-05-12T18:20:41.735Z,15.50
2019-05-12T18:23:19.730Z,15.61
2019-05-12T18:25:50.696Z,15.59
2019-05-12T18:28:27.737Z,15.61
2019-05-12T18:31:00.186Z,15.66
2019-05-12T18:33:48.952Z,15.66
2019-05-12T18:36:14.430Z,15.65
2019-05-12T18:38:48.124Z,15.59
2019-05-12T18:41:27.093Z,15.65
2019-05-12T18:44:00.620Z,15.63
2019-05-12T18:46:46.930Z,15.57
2019-05-12T18:49:24.098Z,15.51
2019-05-12T18:52:00.692Z,15.43
2019-05-12T18:54:45.512Z,15.34
2019-05-12T18:57:14.808Z,15.26
2019-05-12T18:59:57.671Z,15.21
2019-05-12T19:02:33.465Z,15.20
2019-05-12T19:05:12.891Z,15.17
2019-05-12T19:07:43.972Z,15.24
2019-05-12T19:10:18.946Z,15.25
2019-05-12T19:13:01.001Z,15.28
2019-05-12T19:15:27.218Z,15.21
2019-05-12T19:18:00.546Z,15.11
2019-05-12T19:20:36.258Z,14.94
2019-05-12T19:23:08.466Z,14.87
2019-05-12T19:25:43.677Z,14.68
2019-05-12T19:28:21.134Z,14.50
2019-05-12T19:30:54.656Z,14.72
2019-05-12T19:33:28.941Z,14.70
2019-05-12T19:36:08.059Z,14.66
2019-05-12T19:38:43.967Z,14.68
2019-05-12T19:41:19.371Z,14.65
2019-05-12T19:43:53.382Z,14.71
2019-05-12T19:46:28.254Z,14.84
2019-05-12T19:49:00.944Z,14.88
2019-05-12T19:51:34.534Z,14.98
2019-05-12T19:54:08.649Z,14.98
2019-05-12T19:56:43.458Z,14.94
2019-05-12T19:59:23.478Z,14.91
2019-05-12T20:02:05.441Z,14.97
2019-05-12T20:04:43.149Z,14.97
2019-05-12T20:07:12.409Z,14.98
2019-05-12T20:09:55.103Z,15.00
2019-05-12T20:12:20.030Z,14.99
2019-05-12T20:14:57.088Z,14.97
2019-05-12T20:17:27.306Z,15.01
2019-05-12T20:19:59.676Z,15.01
2019-05-12T20:22:33.441Z,14.99
2019-05-12T20:25:09.505Z,14.98
2019-05-12T20:27:44.613Z,14.97
2019-05-12T20:30:24.105Z,14.99
2019-05-12T20:32:59.253Z,15.00
2019-05-12T20:35:33.373Z,14.98
2019-05-12T20:38:06.176Z,14.98
2019-05-12T20:40:43.282Z,14.92
2019-05-12T20:43:24.110Z,14.97
2019-05-12T20:45:53.035Z,15.00
2019-05-12T20:48:30.984Z,14.98
2019-05-12T20:51:03.470Z,14.99
2019-05-12T20:53:39.434Z,14.99
2019-05-12T20:56:12.287Z,15.03
2019-05-12T20:58:50.547Z,15.03
2019-05-12T21:01:26.451Z,15.05
2019-05-12T21:04:03.492Z,15.10
2019-05-12T21:06:41.753Z,15.10
2019-05-12T21:09:14.391Z,15.15
2019-05-12T21:11:46.756Z,15.17
2019-05-12T21:14:20.544Z,15.18
2019-05-12T21:16:55.080Z,15.18
2019-05-12T21:19:35.711Z,15.16
2019-05-12T21:22:06.448Z,15.14
2019-05-12T21:24:40.589Z,15.07
2019-05-12T21:27:21.602Z,15.04
2019-05-12T21:30:00.653Z,15.01
2019-05-12T21:32:36.673Z,14.98
2019-05-12T21:35:19.362Z,14.93
2019-05-12T21:37:48.549Z,14.87
2019-05-12T21:40:30.470Z,14.85
2019-05-12T21:43:04.177Z,14.84
2019-05-12T21:45:36.174Z,14.87
2019-05-12T21:48:15.051Z,14.85
2019-05-12T21:50:44.437Z,14.87
2019-05-12T21:53:20.512Z,14.82
2019-05-12T21:55:57.585Z,14.74
2019-05-12T21:58:34.916Z,14.77
2019-05-12T22:01:13.555Z,14.76
2019-05-12T22:04:02.036Z,14.74
2019-05-12T22:06:29.777Z,14.79
2019-05-12T22:09:03.061Z,14.80
2019-05-12T22:11:35.667Z,14.81
2019-05-12T22:14:07.471Z,14.83
2019-05-12T22:16:44.261Z,14.83
2019-05-12T22:19:16.562Z,14.83
2019-05-12T22:21:50.875Z,14.83
2019-05-12T22:24:33.886Z,14.84
2019-05-12T22:27:02.739Z,14.87
2019-05-12T22:29:34.241Z,14.87
2019-05-12T22:32:06.259Z,14.89
2019-05-12T22:34:42.535Z,14.92
2019-05-12T22:37:20.216Z,14.90
2019-05-12T22:39:54.224Z,14.91
2019-05-12T22:42:33.802Z,14.92
2019-05-12T22:45:08.412Z,14.92
2019-05-12T22:47:40.268Z,14.89
2019-05-12T22:50:13.596Z,14.83
2019-05-12T22:52:49.299Z,14.80
2019-05-12T22:55:21.168Z,14.74
2019-05-12T22:57:55.682Z,14.73
2019-05-12T23:00:27.465Z,14.70
2019-05-12T23:03:07.152Z,14.68
2019-05-12T23:05:34.317Z,14.65
2019-05-12T23:08:08.357Z,14.64
2019-05-12T23:10:41.519Z,14.61
2019-05-12T23:13:13.676Z,14.60
2019-05-12T23:15:49.355Z,14.58
2019-05-12T23:18:28.843Z,14.57
2019-05-12T23:20:55.572Z,14.61
2019-05-12T23:23:34.880Z,14.60
2019-05-12T23:26:10.278Z,14.60
2019-05-12T23:28:46.820Z,14.60
2019-05-12T23:31:19.586Z,14.58
2019-05-12T23:33:54.371Z,14.59
2019-05-12T23:36:43.871Z,14.57
2019-05-12T23:39:25.855Z,14.56
2019-05-12T23:42:04.371Z,14.54
2019-05-12T23:44:40.243Z,14.55
2019-05-12T23:47:17.220Z,14.56
2019-05-12T23:49:50.612Z,14.57
2019-05-12T23:52:30.732Z,14.56
2019-05-12T23:55:15.893Z,14.57
2019-05-12T23:57:48.672Z,14.61
